Atwood, IN

5:31 AM EST on November 23, 2014 (GMT -0500)
Clunette Elevator | Change Station
CLOSE
Current Station
Personal Weather Station
Location: Leesburg, IN
Elevation: 852 ft
Nearby Weather Stations

Elev 852 ft 41.32 °N, 85.93 °W | Updated 29 seconds ago

Overcast
Overcast
46.6 °F
Feels Like 42 °F
N
9.0
Wind Variable Wind from SE
Gusts 9.0 mph

Today
High -- | Low -- °F
--% Chance of Precip.
Yesterday
High -- | Low -- °F
Precip. -- in
7:41 AM 5:18 PM
New Moon, 1% visible
Pressure 29.89 in
Visibility 7.0 miles
Clouds Scattered Clouds 2300 ft
Scattered Clouds 3400 ft
Overcast 4100 ft
Windchill 42 °F
Dew Point 45 °F
Humidity 93%
Rainfall 0.02 in
Snow Depth Not available.
UV 0 out of 12
Pollen .10 out of 12
Air Quality Not available.
Flu Activity Not available.
METAR KASW 231015Z AUTO 14003KT 7SM SCT023 SCT034 OVC041 07/07 A2989 RMK AO2

More Conditions Fewer Conditions

Pressure 29.89 in
Visibility 7.0 miles
Clouds Scattered Clouds 2300 ft
Scattered Clouds 3400 ft
Overcast 4100 ft
Windchill 42 °F
Dew Point 45 °F
Humidity 93%
Rainfall 0.02 in
Snow Depth Not available.
UV 0 out of 12
Pollen .10 out of 12
Air Quality Not available.
Flu Activity Not available.
METAR KASW 231015Z AUTO 14003KT 7SM SCT023 SCT034 OVC041 07/07 A2989 RMK AO2

More Conditions Fewer Conditions

10-Day Weather Forecast

Almanac

Astronomy

Nov. 23, 2014 Rise Set
Actual Time
Civil Twilight
Nautical Twilight
Astronomical Twilight
Moon
Length of Visible Light
Length of Day
Tomorrow will be .
, % of the Moon is Illuminated

Today's Extremes

State Highs State Lows

Community

WunderPhotos

Upload Photos

1,773,030 photos uploaded!

WunderBlogs® & News

Nearby

Air Quality

  Air Quality AQ Index Pollutant
Not available.

Snow Depth

Station Depth Elevation

Earthquake Activity

City Distance Mag. Time & Date
Minimum magnitude displayed is 2.5.

Coastal Water Temperatures

Place Temperature

Nearby Weather Stations